sensor_id;sensor_type;location;lat;lon;timestamp;P1;durP1;ratioP1;P2;durP2;ratioP2
54917;SDS011;40818;50.562;7.454;2023-04-06T00:09:35;5.13;;;0.70;;
54917;SDS011;40818;50.562;7.454;2023-04-06T00:19:38;8.80;;;0.80;;
54917;SDS011;40818;50.562;7.454;2023-04-06T00:29:44;3.40;;;0.60;;
54917;SDS011;40818;50.562;7.454;2023-04-06T00:39:48;4.35;;;0.90;;
54917;SDS011;40818;50.562;7.454;2023-04-06T00:49:54;3.58;;;0.73;;
54917;SDS011;40818;50.562;7.454;2023-04-06T00:59:58;4.47;;;0.70;;
54917;SDS011;40818;50.562;7.454;2023-04-06T02:37:01;3.20;;;0.80;;
54917;SDS011;40818;50.562;7.454;2023-04-06T02:47:05;3.05;;;0.80;;
54917;SDS011;40818;50.562;7.454;2023-04-06T02:57:12;4.22;;;0.90;;
54917;SDS011;40818;50.562;7.454;2023-04-06T03:07:19;2.47;;;0.70;;
54917;SDS011;40818;50.562;7.454;2023-04-06T03:17:25;7.13;;;0.73;;
54917;SDS011;40818;50.562;7.454;2023-04-06T03:27:33;6.82;;;0.70;;
54917;SDS011;40818;50.562;7.454;2023-04-06T03:37:40;10.82;;;0.88;;
54917;SDS011;40818;50.562;7.454;2023-04-06T03:47:44;5.03;;;0.82;;
54917;SDS011;40818;50.562;7.454;2023-04-06T03:57:51;5.95;;;0.77;;
54917;SDS011;40818;50.562;7.454;2023-04-06T04:07:54;4.10;;;0.80;;
54917;SDS011;40818;50.562;7.454;2023-04-06T04:18:03;4.72;;;0.90;;
54917;SDS011;40818;50.562;7.454;2023-04-06T04:28:07;4.18;;;0.77;;
54917;SDS011;40818;50.562;7.454;2023-04-06T04:38:14;4.80;;;0.70;;
54917;SDS011;40818;50.562;7.454;2023-04-06T04:48:24;5.57;;;1.00;;
54917;SDS011;40818;50.562;7.454;2023-04-06T04:58:35;8.13;;;0.80;;
54917;SDS011;40818;50.562;7.454;2023-04-06T05:08:39;2.60;;;0.70;;
54917;SDS011;40818;50.562;7.454;2023-04-06T05:18:46;6.90;;;0.70;;
54917;SDS011;40818;50.562;7.454;2023-04-06T05:28:50;3.17;;;0.77;;
54917;SDS011;40818;50.562;7.454;2023-04-06T05:38:58;6.03;;;0.80;;
54917;SDS011;40818;50.562;7.454;2023-04-06T05:49:09;4.03;;;0.90;;
54917;SDS011;40818;50.562;7.454;2023-04-06T05:59:16;4.18;;;0.80;;
54917;SDS011;40818;50.562;7.454;2023-04-06T06:09:21;4.15;;;0.90;;
54917;SDS011;40818;50.562;7.454;2023-04-06T06:19:36;3.50;;;0.80;;
54917;SDS011;40818;50.562;7.454;2023-04-06T06:29:42;4.20;;;1.05;;
54917;SDS011;40818;50.562;7.454;2023-04-06T06:39:48;4.18;;;1.13;;
54917;SDS011;40818;50.562;7.454;2023-04-06T06:49:53;4.35;;;1.10;;
54917;SDS011;40818;50.562;7.454;2023-04-06T07:00:00;6.03;;;1.30;;
54917;SDS011;40818;50.562;7.454;2023-04-06T07:10:06;6.00;;;1.10;;
54917;SDS011;40818;50.562;7.454;2023-04-06T07:20:15;3.33;;;1.15;;
54917;SDS011;40818;50.562;7.454;2023-04-06T07:30:19;4.38;;;1.20;;
54917;SDS011;40818;50.562;7.454;2023-04-06T07:40:25;10.57;;;1.83;;
54917;SDS011;40818;50.562;7.454;2023-04-06T07:50:31;9.73;;;1.98;;
54917;SDS011;40818;50.562;7.454;2023-04-06T08:00:37;9.30;;;1.90;;
54917;SDS011;40818;50.562;7.454;2023-04-06T08:10:41;10.18;;;1.90;;
54917;SDS011;40818;50.562;7.454;2023-04-06T08:20:47;6.32;;;2.00;;
54917;SDS011;40818;50.562;7.454;2023-04-06T08:30:51;6.90;;;2.45;;
54917;SDS011;40818;50.562;7.454;2023-04-06T08:40:57;6.32;;;2.20;;
54917;SDS011;40818;50.562;7.454;2023-04-06T08:51:00;9.23;;;2.50;;
54917;SDS011;40818;50.562;7.454;2023-04-06T09:01:08;10.27;;;3.03;;
54917;SDS011;40818;50.562;7.454;2023-04-06T09:11:15;9.68;;;2.75;;
54917;SDS011;40818;50.562;7.454;2023-04-06T09:21:21;15.50;;;3.47;;
54917;SDS011;40818;50.562;7.454;2023-04-06T09:31:26;8.75;;;2.92;;
54917;SDS011;40818;50.562;7.454;2023-04-06T09:41:35;10.85;;;3.75;;
54917;SDS011;40818;50.562;7.454;2023-04-06T09:51:39;9.55;;;2.95;;
54917;SDS011;40818;50.562;7.454;2023-04-06T10:01:46;11.82;;;3.20;;
54917;SDS011;40818;50.562;7.454;2023-04-06T10:11:54;12.20;;;3.83;;
54917;SDS011;40818;50.562;7.454;2023-04-06T10:22:00;12.23;;;3.55;;
54917;SDS011;40818;50.562;7.454;2023-04-06T10:32:08;11.25;;;3.20;;
54917;SDS011;40818;50.562;7.454;2023-04-06T10:42:14;10.48;;;3.10;;
54917;SDS011;40818;50.562;7.454;2023-04-06T10:52:17;14.65;;;2.97;;
54917;SDS011;40818;50.562;7.454;2023-04-06T11:02:23;9.82;;;2.17;;
54917;SDS011;40818;50.562;7.454;2023-04-06T11:12:27;10.95;;;2.80;;
54917;SDS011;40818;50.562;7.454;2023-04-06T11:22:33;16.05;;;3.15;;
54917;SDS011;40818;50.562;7.454;2023-04-06T11:32:39;9.15;;;2.50;;
54917;SDS011;40818;50.562;7.454;2023-04-06T11:42:46;9.02;;;2.35;;
54917;SDS011;40818;50.562;7.454;2023-04-06T11:52:58;10.48;;;2.22;;
54917;SDS011;40818;50.562;7.454;2023-04-06T12:03:05;9.40;;;3.05;;
54917;SDS011;40818;50.562;7.454;2023-04-06T12:13:09;8.55;;;2.92;;
54917;SDS011;40818;50.562;7.454;2023-04-06T12:23:15;11.25;;;3.05;;
54917;SDS011;40818;50.562;7.454;2023-04-06T12:33:18;15.77;;;4.65;;
54917;SDS011;40818;50.562;7.454;2023-04-06T12:43:24;13.68;;;3.85;;
54917;SDS011;40818;50.562;7.454;2023-04-06T12:53:28;8.32;;;2.55;;
54917;SDS011;40818;50.562;7.454;2023-04-06T13:03:34;13.75;;;3.67;;
54917;SDS011;40818;50.562;7.454;2023-04-06T13:13:37;10.35;;;2.90;;
54917;SDS011;40818;50.562;7.454;2023-04-06T13:23:44;8.38;;;3.17;;
54917;SDS011;40818;50.562;7.454;2023-04-06T13:33:47;12.38;;;2.38;;
54917;SDS011;40818;50.562;7.454;2023-04-06T13:43:53;9.23;;;2.72;;
54917;SDS011;40818;50.562;7.454;2023-04-06T13:53:58;6.57;;;1.83;;
54917;SDS011;40818;50.562;7.454;2023-04-06T14:04:04;7.30;;;1.40;;
54917;SDS011;40818;50.562;7.454;2023-04-06T14:14:07;5.05;;;1.13;;
54917;SDS011;40818;50.562;7.454;2023-04-06T14:24:13;4.43;;;1.35;;
54917;SDS011;40818;50.562;7.454;2023-04-06T14:34:18;5.78;;;1.40;;
54917;SDS011;40818;50.562;7.454;2023-04-06T14:44:24;4.75;;;1.30;;
54917;SDS011;40818;50.562;7.454;2023-04-06T14:54:27;3.60;;;1.20;;
54917;SDS011;40818;50.562;7.454;2023-04-06T15:04:36;6.70;;;1.30;;
54917;SDS011;40818;50.562;7.454;2023-04-06T15:14:39;8.32;;;1.50;;
54917;SDS011;40818;50.562;7.454;2023-04-06T15:24:45;4.70;;;1.45;;
54917;SDS011;40818;50.562;7.454;2023-04-06T15:34:49;8.10;;;1.20;;
54917;SDS011;40818;50.562;7.454;2023-04-06T15:44:55;6.88;;;1.50;;
54917;SDS011;40818;50.562;7.454;2023-04-06T15:54:58;4.03;;;1.00;;
54917;SDS011;40818;50.562;7.454;2023-04-06T16:05:05;6.32;;;1.25;;
54917;SDS011;40818;50.562;7.454;2023-04-06T16:15:10;5.47;;;1.67;;
54917;SDS011;40818;50.562;7.454;2023-04-06T16:25:19;5.20;;;1.92;;
54917;SDS011;40818;50.562;7.454;2023-04-06T16:35:23;6.53;;;1.90;;
54917;SDS011;40818;50.562;7.454;2023-04-06T16:45:29;7.93;;;2.13;;
54917;SDS011;40818;50.562;7.454;2023-04-06T16:55:32;6.45;;;1.85;;
54917;SDS011;40818;50.562;7.454;2023-04-06T17:05:38;7.47;;;2.38;;
54917;SDS011;40818;50.562;7.454;2023-04-06T17:15:44;7.90;;;2.35;;
54917;SDS011;40818;50.562;7.454;2023-04-06T17:25:50;9.02;;;2.97;;
54917;SDS011;40818;50.562;7.454;2023-04-06T17:35:54;8.25;;;3.33;;
54917;SDS011;40818;50.562;7.454;2023-04-06T17:46:00;10.48;;;2.30;;
54917;SDS011;40818;50.562;7.454;2023-04-06T17:56:04;9.95;;;2.35;;
54917;SDS011;40818;50.562;7.454;2023-04-06T18:06:12;9.30;;;2.42;;
54917;SDS011;40818;50.562;7.454;2023-04-06T18:16:17;7.72;;;2.10;;
54917;SDS011;40818;50.562;7.454;2023-04-06T18:26:24;5.50;;;1.80;;
54917;SDS011;40818;50.562;7.454;2023-04-06T18:36:28;5.28;;;1.52;;
54917;SDS011;40818;50.562;7.454;2023-04-06T18:46:34;8.63;;;2.65;;
54917;SDS011;40818;50.562;7.454;2023-04-06T18:56:38;8.82;;;2.63;;
54917;SDS011;40818;50.562;7.454;2023-04-06T19:06:44;8.77;;;2.50;;
54917;SDS011;40818;50.562;7.454;2023-04-06T19:16:48;5.85;;;1.48;;
54917;SDS011;40818;50.562;7.454;2023-04-06T19:26:56;7.38;;;1.23;;
54917;SDS011;40818;50.562;7.454;2023-04-06T19:36:59;5.93;;;1.65;;
54917;SDS011;40818;50.562;7.454;2023-04-06T19:47:05;7.65;;;2.90;;
54917;SDS011;40818;50.562;7.454;2023-04-06T19:57:11;12.68;;;4.65;;
54917;SDS011;40818;50.562;7.454;2023-04-06T20:07:17;14.88;;;4.70;;
54917;SDS011;40818;50.562;7.454;2023-04-06T20:17:20;11.07;;;4.60;;
54917;SDS011;40818;50.562;7.454;2023-04-06T20:27:27;13.18;;;4.90;;
54917;SDS011;40818;50.562;7.454;2023-04-06T20:37:30;15.10;;;5.47;;
54917;SDS011;40818;50.562;7.454;2023-04-06T20:47:36;10.25;;;5.80;;
54917;SDS011;40818;50.562;7.454;2023-04-06T20:57:40;8.48;;;3.45;;
54917;SDS011;40818;50.562;7.454;2023-04-06T21:07:47;9.18;;;4.30;;
54917;SDS011;40818;50.562;7.454;2023-04-06T21:17:50;9.07;;;3.50;;
54917;SDS011;40818;50.562;7.454;2023-04-06T21:27:56;10.10;;;4.07;;
54917;SDS011;40818;50.562;7.454;2023-04-06T21:38:00;9.75;;;3.40;;
54917;SDS011;40818;50.562;7.454;2023-04-06T21:48:06;7.50;;;3.40;;
54917;SDS011;40818;50.562;7.454;2023-04-06T21:58:09;5.85;;;2.65;;
54917;SDS011;40818;50.562;7.454;2023-04-06T22:08:16;5.60;;;1.90;;
54917;SDS011;40818;50.562;7.454;2023-04-06T22:18:20;4.70;;;2.00;;
54917;SDS011;40818;50.562;7.454;2023-04-06T22:28:26;5.32;;;2.42;;
54917;SDS011;40818;50.562;7.454;2023-04-06T22:38:29;7.40;;;3.58;;
54917;SDS011;40818;50.562;7.454;2023-04-06T22:48:35;10.95;;;3.47;;
54917;SDS011;40818;50.562;7.454;2023-04-06T22:58:39;6.93;;;3.13;;
54917;SDS011;40818;50.562;7.454;2023-04-06T23:08:45;9.98;;;4.72;;
54917;SDS011;40818;50.562;7.454;2023-04-06T23:18:48;8.68;;;4.22;;
54917;SDS011;40818;50.562;7.454;2023-04-06T23:28:54;8.45;;;4.50;;
54917;SDS011;40818;50.562;7.454;2023-04-06T23:38:58;13.45;;;4.88;;
54917;SDS011;40818;50.562;7.454;2023-04-06T23:49:04;12.30;;;5.30;;
54917;SDS011;40818;50.562;7.454;2023-04-06T23:59:07;9.80;;;4.80;;
